createdAt,value
2018-06-03T00:00:19.510Z,33.47
2018-06-03T00:02:47.774Z,34.77
2018-06-03T00:05:16.011Z,35.30
2018-06-03T00:07:44.169Z,34.40
2018-06-03T00:10:12.285Z,33.50
2018-06-03T00:12:40.456Z,32.53
2018-06-03T00:15:08.591Z,32.73
2018-06-03T00:17:36.711Z,30.57
2018-06-03T00:20:04.843Z,28.70
2018-06-03T00:22:32.975Z,30.17
2018-06-03T00:25:01.146Z,29.33
2018-06-03T00:27:29.279Z,27.93
2018-06-03T00:29:57.408Z,28.17
2018-06-03T00:32:25.560Z,27.83
2018-06-03T00:34:53.709Z,29.90
2018-06-03T00:37:21.825Z,29.60
2018-06-03T00:39:49.964Z,29.37
2018-06-03T00:42:18.129Z,28.93
2018-06-03T00:44:46.247Z,30.00
2018-06-03T00:47:14.391Z,28.67
2018-06-03T00:49:42.530Z,29.13
2018-06-03T00:52:10.655Z,28.90
2018-06-03T00:54:38.797Z,30.50
2018-06-03T00:57:09.777Z,30.90
2018-06-03T00:59:37.922Z,32.47
2018-06-03T01:02:06.060Z,31.57
2018-06-03T01:04:34.200Z,30.93
2018-06-03T01:07:02.593Z,31.53
2018-06-03T01:09:30.711Z,29.67
2018-06-03T01:11:58.851Z,30.67
2018-06-03T01:14:27.003Z,29.67
2018-06-03T01:16:55.149Z,32.03
2018-06-03T01:19:23.302Z,31.40
2018-06-03T01:21:51.446Z,32.27
2018-06-03T01:24:19.575Z,32.47
2018-06-03T01:26:47.728Z,32.57
2018-06-03T01:29:15.933Z,31.83
2018-06-03T01:31:44.186Z,29.80
2018-06-03T01:34:12.345Z,30.70
2018-06-03T01:36:40.485Z,30.57
2018-06-03T01:39:08.604Z,30.70
2018-06-03T01:41:36.769Z,30.00
2018-06-03T01:44:04.893Z,28.10
2018-06-03T01:46:33.042Z,29.00
2018-06-03T01:49:01.189Z,28.07
2018-06-03T01:51:29.325Z,27.10
2018-06-03T01:53:58.057Z,27.90
2018-06-03T01:56:26.211Z,28.60
2018-06-03T01:58:54.327Z,29.83
2018-06-03T02:01:22.472Z,29.63
2018-06-03T02:03:50.609Z,31.23
2018-06-03T02:06:18.767Z,30.87
2018-06-03T02:08:46.906Z,31.03
2018-06-03T02:11:15.039Z,28.77
2018-06-03T02:13:43.186Z,30.47
2018-06-03T02:16:11.345Z,32.03
2018-06-03T02:18:39.460Z,31.57
2018-06-03T02:21:07.633Z,32.63
2018-06-03T02:23:35.775Z,32.77
2018-06-03T02:26:03.884Z,31.17
2018-06-03T02:28:32.037Z,30.43
2018-06-03T02:31:00.169Z,32.40
2018-06-03T02:33:28.319Z,30.00
2018-06-03T02:35:56.466Z,30.93
2018-06-03T02:38:24.663Z,31.13
2018-06-03T02:40:52.794Z,30.23
2018-06-03T02:43:20.927Z,31.20
2018-06-03T02:45:49.117Z,32.50
2018-06-03T02:48:17.275Z,32.63
2018-06-03T02:50:45.400Z,32.70
2018-06-03T02:53:13.526Z,33.70
2018-06-03T02:55:42.127Z,32.73
2018-06-03T02:58:10.288Z,34.83
2018-06-03T03:00:38.407Z,34.50
2018-06-03T03:03:06.562Z,34.13
2018-06-03T03:05:34.692Z,34.63
2018-06-03T03:08:02.808Z,34.23
2018-06-03T03:10:31.163Z,34.17
2018-06-03T03:12:59.295Z,33.47
2018-06-03T03:15:27.430Z,32.67
2018-06-03T03:17:55.578Z,33.33
2018-06-03T03:20:23.714Z,34.77
2018-06-03T03:22:51.866Z,34.27
2018-06-03T03:25:19.998Z,36.67
2018-06-03T03:27:48.187Z,35.67
2018-06-03T03:30:16.416Z,34.50
2018-06-03T03:32:44.565Z,34.40
2018-06-03T03:35:12.714Z,35.37
2018-06-03T03:37:40.850Z,35.67
2018-06-03T03:40:08.990Z,34.73
2018-06-03T03:42:37.112Z,34.87
2018-06-03T03:45:05.250Z,35.53
2018-06-03T03:47:33.407Z,35.07
2018-06-03T03:50:01.546Z,35.53
2018-06-03T03:52:29.700Z,35.70
2018-06-03T03:54:57.819Z,37.13
2018-06-03T03:57:25.958Z,33.97
2018-06-03T03:59:54.117Z,34.93
2018-06-03T04:02:22.254Z,35.03
2018-06-03T04:04:50.369Z,34.67
2018-06-03T04:08:00.297Z,35.17
2018-06-03T04:10:28.458Z,35.10
2018-06-03T04:12:56.598Z,35.63
2018-06-03T04:15:24.725Z,32.67
2018-06-03T04:17:52.866Z,35.43
2018-06-03T04:20:20.992Z,36.53
2018-06-03T04:22:49.138Z,35.27
2018-06-03T04:25:17.287Z,34.87
2018-06-03T04:27:45.457Z,34.37
2018-06-03T04:30:13.594Z,35.00
2018-06-03T04:32:41.719Z,34.40
2018-06-03T04:35:09.862Z,35.70
2018-06-03T04:37:38.024Z,36.33
2018-06-03T04:40:06.177Z,36.97
2018-06-03T04:42:34.310Z,37.37
2018-06-03T04:45:02.437Z,36.57
2018-06-03T04:47:30.570Z,35.93
2018-06-03T04:49:58.723Z,37.90
2018-06-03T04:52:26.859Z,37.30
2018-06-03T04:54:55.012Z,37.17
2018-06-03T04:57:23.142Z,36.63
2018-06-03T04:59:51.442Z,35.43
2018-06-03T05:02:20.408Z,36.67
2018-06-03T05:04:48.632Z,39.07
2018-06-03T05:07:16.789Z,37.07
2018-06-03T05:09:44.909Z,38.40
2018-06-03T05:12:13.453Z,38.23
2018-06-03T05:14:41.985Z,39.20
2018-06-03T05:17:10.152Z,40.53
2018-06-03T05:19:38.290Z,41.07
2018-06-03T05:22:06.450Z,40.57
2018-06-03T05:24:34.695Z,41.47
2018-06-03T05:27:02.828Z,41.23
2018-06-03T05:29:30.943Z,41.00
2018-06-03T05:31:59.089Z,41.77
2018-06-03T05:34:27.236Z,42.90
2018-06-03T05:36:55.395Z,41.33
2018-06-03T05:39:23.535Z,40.53
2018-06-03T05:41:51.680Z,42.87
2018-06-03T05:44:19.822Z,41.17
2018-06-03T05:46:47.958Z,44.20
2018-06-03T05:49:16.125Z,41.97
2018-06-03T05:51:44.268Z,45.00
2018-06-03T05:54:12.398Z,45.57
2018-06-03T05:56:40.537Z,44.47
2018-06-03T05:59:08.682Z,47.93
2018-06-03T06:01:36.818Z,46.10
2018-06-03T06:04:04.967Z,44.97
2018-06-03T06:06:33.098Z,43.07
2018-06-03T06:09:01.255Z,45.73
2018-06-03T06:11:29.370Z,44.77
2018-06-03T06:13:57.500Z,45.97
2018-06-03T06:16:25.636Z,44.93
2018-06-03T06:18:53.751Z,46.27
2018-06-03T06:21:21.898Z,48.07
2018-06-03T06:23:50.029Z,46.17
2018-06-03T06:26:18.201Z,46.57
2018-06-03T06:28:46.335Z,45.60
2018-06-03T06:31:14.476Z,45.57
2018-06-03T06:33:42.603Z,43.47
2018-06-03T06:36:10.754Z,44.97
2018-06-03T06:38:38.973Z,45.50
2018-06-03T06:41:07.103Z,45.07
2018-06-03T06:43:35.228Z,45.30
2018-06-03T06:46:03.370Z,46.77
2018-06-03T06:48:31.524Z,45.70
2018-06-03T06:50:59.678Z,47.53
2018-06-03T06:53:27.828Z,46.23
2018-06-03T06:55:56.012Z,43.50
2018-06-03T06:58:24.162Z,47.20
2018-06-03T07:00:52.301Z,46.90
2018-06-03T07:03:20.525Z,45.67
2018-06-03T07:05:48.634Z,48.93
2018-06-03T07:08:16.770Z,48.23
2018-06-03T07:10:45.184Z,45.57
2018-06-03T07:13:13.340Z,46.83
2018-06-03T07:15:41.460Z,47.67
2018-06-03T07:18:09.623Z,46.93
2018-06-03T07:20:37.736Z,45.60
2018-06-03T07:23:05.895Z,48.17
2018-06-03T07:25:34.065Z,45.47
2018-06-03T07:28:02.366Z,47.80
2018-06-03T07:30:30.496Z,49.07
2018-06-03T07:32:58.634Z,48.43
2018-06-03T07:35:26.756Z,46.20
2018-06-03T07:37:54.889Z,50.03
2018-06-03T07:40:23.035Z,48.23
2018-06-03T07:42:51.170Z,48.90
2018-06-03T07:45:19.334Z,47.80
2018-06-03T07:47:47.490Z,46.87
2018-06-03T07:50:15.951Z,44.10
2018-06-03T07:52:44.115Z,48.93
2018-06-03T07:55:12.228Z,47.13
2018-06-03T07:57:40.385Z,51.73
2018-06-03T08:00:08.538Z,50.77
2018-06-03T08:02:36.663Z,50.37
2018-06-03T08:05:04.803Z,47.03
2018-06-03T08:07:32.942Z,48.53
2018-06-03T08:10:01.064Z,45.77
2018-06-03T08:12:29.222Z,47.57
2018-06-03T08:14:57.350Z,44.30
2018-06-03T08:17:25.495Z,49.73
2018-06-03T08:19:53.612Z,46.20
2018-06-03T08:22:21.732Z,46.87
2018-06-03T08:24:49.864Z,44.17
2018-06-03T08:27:18.002Z,47.57
2018-06-03T08:29:46.146Z,49.10
2018-06-03T08:32:14.353Z,45.80
2018-06-03T08:34:42.473Z,48.30
2018-06-03T08:37:10.633Z,46.90
2018-06-03T08:39:38.762Z,44.60
2018-06-03T08:42:06.901Z,43.87
2018-06-03T08:44:35.032Z,40.67
2018-06-03T08:47:03.161Z,41.93
2018-06-03T08:49:31.287Z,38.47
2018-06-03T08:51:59.417Z,36.80
2018-06-03T08:54:27.579Z,39.90
2018-06-03T08:56:55.720Z,39.23
2018-06-03T08:59:23.842Z,38.30
2018-06-03T09:01:52.613Z,37.53
2018-06-03T09:04:20.757Z,37.37
2018-06-03T09:06:48.906Z,37.93
2018-06-03T09:09:17.065Z,36.87
2018-06-03T09:11:45.187Z,41.33
2018-06-03T09:14:13.353Z,41.30
2018-06-03T09:16:41.479Z,40.97
2018-06-03T09:19:10.560Z,41.70
2018-06-03T09:21:38.686Z,41.53
2018-06-03T09:24:06.853Z,39.90
2018-06-03T09:26:34.970Z,40.83
2018-06-03T09:29:03.106Z,42.87
2018-06-03T09:31:31.233Z,43.23
2018-06-03T09:33:59.782Z,41.17
2018-06-03T09:36:27.896Z,43.03
2018-06-03T09:38:56.035Z,44.87
2018-06-03T09:41:24.234Z,43.30
2018-06-03T09:43:52.399Z,41.47
2018-06-03T09:46:20.560Z,42.57
2018-06-03T09:48:48.741Z,43.33
2018-06-03T09:51:16.877Z,43.73
2018-06-03T09:53:45.000Z,41.43
2018-06-03T09:56:13.138Z,41.57
2018-06-03T09:58:41.342Z,45.20
2018-06-03T10:01:09.429Z,47.03
2018-06-03T10:03:37.562Z,44.07
2018-06-03T10:06:05.722Z,41.30
2018-06-03T10:08:33.919Z,43.47
2018-06-03T10:11:02.080Z,42.30
2018-06-03T10:13:30.210Z,41.67
2018-06-03T10:15:58.339Z,44.93
2018-06-03T10:18:26.501Z,42.43
2018-06-03T10:20:54.645Z,40.40
2018-06-03T10:23:22.795Z,39.00
2018-06-03T10:25:50.970Z,42.13
2018-06-03T10:28:19.102Z,39.93
2018-06-03T10:30:47.238Z,38.17
2018-06-03T10:33:15.367Z,37.57
2018-06-03T10:35:43.529Z,39.43
2018-06-03T10:38:11.664Z,39.83
2018-06-03T10:40:39.805Z,38.23
2018-06-03T10:43:07.970Z,39.97
2018-06-03T10:45:36.104Z,37.90
2018-06-03T10:48:04.276Z,40.87
2018-06-03T10:50:32.406Z,38.73
2018-06-03T10:53:00.540Z,39.90
2018-06-03T10:55:28.685Z,41.53
2018-06-03T10:57:56.837Z,39.13
2018-06-03T11:00:24.973Z,37.93
2018-06-03T11:02:53.132Z,36.03
2018-06-03T11:05:21.231Z,39.43
2018-06-03T11:07:49.384Z,36.93
2018-06-03T11:10:17.520Z,35.40
2018-06-03T11:12:45.821Z,34.50
2018-06-03T11:15:13.970Z,32.17
2018-06-03T11:17:42.121Z,34.90
2018-06-03T11:20:10.259Z,37.07
2018-06-03T11:22:38.390Z,32.90
2018-06-03T11:25:06.546Z,35.57
2018-06-03T11:27:34.746Z,33.40
2018-06-03T11:30:04.756Z,34.87
2018-06-03T11:32:32.912Z,33.97
2018-06-03T11:35:01.030Z,32.33
2018-06-03T11:37:29.194Z,30.60
2018-06-03T11:39:57.301Z,31.87
2018-06-03T11:42:25.446Z,30.97
2018-06-03T11:44:53.635Z,28.90
2018-06-03T11:47:21.806Z,31.23
2018-06-03T11:49:49.943Z,28.73
2018-06-03T11:52:18.139Z,30.37
2018-06-03T11:54:46.242Z,27.13
2018-06-03T11:57:14.383Z,30.13
2018-06-03T11:59:42.524Z,27.37
2018-06-03T12:02:10.794Z,28.90
2018-06-03T12:04:38.940Z,24.40
2018-06-03T12:07:07.112Z,25.23
2018-06-03T12:09:35.257Z,25.20
2018-06-03T12:12:03.384Z,27.20
2018-06-03T12:14:31.539Z,25.37
2018-06-03T12:16:59.652Z,24.03
2018-06-03T12:19:27.808Z,26.00
2018-06-03T12:21:55.973Z,25.07
2018-06-03T12:24:24.089Z,26.93
2018-06-03T12:26:52.371Z,27.67
2018-06-03T12:29:20.553Z,27.57
2018-06-03T12:31:48.702Z,26.33
2018-06-03T12:34:16.845Z,26.90
2018-06-03T12:36:44.964Z,26.37
2018-06-03T12:39:13.120Z,26.07
2018-06-03T12:41:41.269Z,25.57
2018-06-03T12:44:09.423Z,27.77
2018-06-03T12:46:37.548Z,28.13
2018-06-03T12:49:05.690Z,25.17
2018-06-03T12:51:33.862Z,24.43
2018-06-03T12:54:01.997Z,23.50
2018-06-03T12:56:30.132Z,27.37
2018-06-03T12:58:58.274Z,26.63
2018-06-03T13:01:26.414Z,24.67
2018-06-03T13:03:54.583Z,24.90
2018-06-03T13:06:22.717Z,23.97
2018-06-03T13:08:50.838Z,24.63
2018-06-03T13:11:18.993Z,26.17
2018-06-03T13:13:47.156Z,24.20
2018-06-03T13:16:15.284Z,25.17
2018-06-03T13:18:43.446Z,26.80
2018-06-03T13:21:11.579Z,25.33
2018-06-03T13:23:39.718Z,25.10
2018-06-03T13:26:07.850Z,27.33
2018-06-03T13:28:35.993Z,27.00
2018-06-03T13:31:04.109Z,24.80
2018-06-03T13:33:32.246Z,24.37
2018-06-03T13:36:00.390Z,23.23
2018-06-03T13:38:28.541Z,21.80
2018-06-03T13:40:56.818Z,24.13
2018-06-03T13:43:24.969Z,24.93
2018-06-03T13:45:53.099Z,27.67
2018-06-03T13:48:21.291Z,27.60
2018-06-03T13:50:49.359Z,23.83
2018-06-03T13:53:17.510Z,26.87
2018-06-03T13:55:45.660Z,27.30
2018-06-03T13:58:13.816Z,24.87
2018-06-03T14:00:41.971Z,25.03
2018-06-03T14:03:10.122Z,28.80
2018-06-03T14:05:38.285Z,27.73
2018-06-03T14:08:06.411Z,25.87
2018-06-03T14:10:34.551Z,24.47
2018-06-03T14:13:02.684Z,24.70
2018-06-03T14:15:30.817Z,20.70
2018-06-03T14:17:58.960Z,18.13
2018-06-03T14:20:27.076Z,17.33
2018-06-03T14:22:55.206Z,16.07
2018-06-03T14:25:23.392Z,14.70
2018-06-03T14:27:51.502Z,14.60
2018-06-03T14:30:19.662Z,17.73
2018-06-03T14:32:47.792Z,19.33
2018-06-03T14:35:15.912Z,17.40
2018-06-03T14:37:44.044Z,14.70
2018-06-03T14:40:12.194Z,14.03
2018-06-03T14:42:40.366Z,13.90
2018-06-03T14:45:08.482Z,14.60
2018-06-03T14:47:36.617Z,14.10
2018-06-03T14:50:04.780Z,15.63
2018-06-03T14:52:32.906Z,14.00
2018-06-03T14:55:01.028Z,16.37
2018-06-03T14:57:29.176Z,15.40
2018-06-03T14:59:57.259Z,14.50
2018-06-03T15:02:25.387Z,14.97
2018-06-03T15:04:53.546Z,15.53
2018-06-03T15:07:21.702Z,14.07
2018-06-03T15:09:49.833Z,14.50
2018-06-03T15:12:17.943Z,14.67
2018-06-03T15:14:46.111Z,13.50
2018-06-03T15:17:14.261Z,13.53
2018-06-03T15:19:42.561Z,13.43
2018-06-03T15:22:10.730Z,14.97
2018-06-03T15:24:38.961Z,12.87
2018-06-03T15:27:07.141Z,11.27
2018-06-03T15:29:35.278Z,11.57
2018-06-03T15:32:03.434Z,12.43
2018-06-03T15:34:31.584Z,11.87
2018-06-03T15:36:59.700Z,10.77
2018-06-03T15:39:28.200Z,10.77
2018-06-03T15:41:57.364Z,11.67
2018-06-03T15:44:25.527Z,12.07
2018-06-03T15:46:53.834Z,11.70
2018-06-03T15:49:22.184Z,12.17
2018-06-03T15:51:50.660Z,11.50
2018-06-03T15:54:18.805Z,10.90
2018-06-03T15:56:46.968Z,12.30
2018-06-03T15:59:15.219Z,12.03
2018-06-03T16:01:43.329Z,11.47
2018-06-03T16:04:11.471Z,12.47
2018-06-03T16:06:39.624Z,11.40
2018-06-03T16:09:07.939Z,11.20
2018-06-03T16:11:36.066Z,11.93
2018-06-03T16:14:04.226Z,11.27
2018-06-03T16:16:32.384Z,10.83
2018-06-03T16:19:00.719Z,11.23
2018-06-03T16:21:29.241Z,12.30
2018-06-03T16:23:57.376Z,11.40
2018-06-03T16:26:25.506Z,11.37
2018-06-03T16:28:53.660Z,10.33
2018-06-03T16:31:21.948Z,10.97
2018-06-03T16:33:50.067Z,11.93
2018-06-03T16:36:18.182Z,11.73
2018-06-03T16:38:47.228Z,9.97
2018-06-03T16:41:15.370Z,11.10
2018-06-03T16:43:43.498Z,10.87
2018-06-03T16:46:11.663Z,10.80
2018-06-03T16:48:39.833Z,10.10
2018-06-03T16:51:07.922Z,10.43
2018-06-03T16:53:36.060Z,9.47
2018-06-03T16:56:04.176Z,9.20
2018-06-03T16:58:32.336Z,10.97
2018-06-03T17:01:00.447Z,10.30
2018-06-03T17:03:28.587Z,9.83
2018-06-03T17:05:56.714Z,11.00
2018-06-03T17:08:24.866Z,9.43
2018-06-03T17:10:53.001Z,9.97
2018-06-03T17:13:21.171Z,9.63
2018-06-03T17:15:49.368Z,10.50
2018-06-03T17:18:17.505Z,9.93
2018-06-03T17:20:45.625Z,9.07
2018-06-03T17:23:13.781Z,8.90
2018-06-03T17:25:41.922Z,8.90
2018-06-03T17:28:10.073Z,9.27
2018-06-03T17:30:38.194Z,9.00
2018-06-03T17:33:06.347Z,9.40
2018-06-03T17:35:34.523Z,9.07
2018-06-03T17:38:02.654Z,10.00
2018-06-03T17:40:30.790Z,9.53
2018-06-03T17:42:58.919Z,9.57
2018-06-03T17:45:27.085Z,9.43
2018-06-03T17:47:56.122Z,8.60
2018-06-03T17:50:24.264Z,9.60
2018-06-03T17:52:52.393Z,8.83
2018-06-03T17:55:20.525Z,9.50
2018-06-03T17:57:48.712Z,8.77
2018-06-03T18:00:16.906Z,10.60
2018-06-03T18:02:45.038Z,9.70
2018-06-03T18:05:13.180Z,10.13
2018-06-03T18:07:41.328Z,10.27
2018-06-03T18:10:09.474Z,10.10
2018-06-03T18:12:37.630Z,10.03
2018-06-03T18:15:05.750Z,10.03
2018-06-03T18:17:33.870Z,9.83
2018-06-03T18:20:02.022Z,9.87
2018-06-03T18:22:30.196Z,10.30
2018-06-03T18:24:58.265Z,10.07
2018-06-03T18:27:27.308Z,10.00
2018-06-03T18:29:55.471Z,10.40
2018-06-03T18:32:23.614Z,9.77
2018-06-03T18:34:51.830Z,10.47
2018-06-03T18:37:19.973Z,10.23
2018-06-03T18:39:48.112Z,10.07
2018-06-03T18:42:16.239Z,12.03
2018-06-03T18:44:44.368Z,12.60
2018-06-03T18:47:12.676Z,10.83
2018-06-03T18:49:40.840Z,11.10
2018-06-03T18:52:09.199Z,10.47
2018-06-03T18:54:37.470Z,10.63
2018-06-03T18:57:05.617Z,10.90
2018-06-03T18:59:33.833Z,10.57
2018-06-03T19:02:01.939Z,10.37
2018-06-03T19:04:30.074Z,9.33
2018-06-03T19:06:58.211Z,10.73
2018-06-03T19:09:26.338Z,9.83
2018-06-03T19:11:54.490Z,10.07
2018-06-03T19:14:22.634Z,10.07
2018-06-03T19:16:50.739Z,9.77
2018-06-03T19:19:18.933Z,9.77
2018-06-03T19:21:47.404Z,9.27
2018-06-03T19:24:15.566Z,10.37
2018-06-03T19:26:43.706Z,9.53
2018-06-03T19:29:11.829Z,9.90
2018-06-03T19:31:39.992Z,10.00
2018-06-03T19:34:08.117Z,10.13
2018-06-03T19:36:36.457Z,10.07
2018-06-03T19:39:04.654Z,10.47
2018-06-03T19:41:32.775Z,9.90
2018-06-03T19:44:01.029Z,9.57
2018-06-03T19:46:29.336Z,10.37
2018-06-03T19:48:57.472Z,9.03
2018-06-03T19:51:26.328Z,9.83
2018-06-03T19:53:54.507Z,9.37
2018-06-03T19:56:22.649Z,9.83
2018-06-03T19:58:50.785Z,9.20
2018-06-03T20:01:19.067Z,9.53
2018-06-03T20:03:47.188Z,9.33
2018-06-03T20:06:15.316Z,8.83
2018-06-03T20:08:43.460Z,9.67
2018-06-03T20:11:11.587Z,9.00
2018-06-03T20:13:39.729Z,9.00
2018-06-03T20:16:07.875Z,9.50
2018-06-03T20:18:35.990Z,8.70
2018-06-03T20:21:04.135Z,8.97
2018-06-03T20:23:32.288Z,9.33
2018-06-03T20:26:00.453Z,8.50
2018-06-03T20:28:28.616Z,8.87
2018-06-03T20:30:56.724Z,8.60
2018-06-03T20:33:25.011Z,8.53
2018-06-03T20:35:53.127Z,8.67
2018-06-03T20:38:21.240Z,8.23
2018-06-03T20:40:49.561Z,9.03
2018-06-03T20:43:17.694Z,8.83
2018-06-03T20:45:45.869Z,8.30
2018-06-03T20:48:13.979Z,9.07
2018-06-03T20:50:42.111Z,8.73
2018-06-03T20:53:10.308Z,8.27
2018-06-03T20:55:38.487Z,8.50
2018-06-03T20:58:06.610Z,8.77
2018-06-03T21:00:34.778Z,8.83
2018-06-03T21:03:02.896Z,9.43
2018-06-03T21:05:31.129Z,8.50
2018-06-03T21:07:59.294Z,9.33
2018-06-03T21:10:27.476Z,9.77
2018-06-03T21:12:55.635Z,9.63
2018-06-03T21:15:23.759Z,8.93
2018-06-03T21:17:51.882Z,9.43
2018-06-03T21:20:20.271Z,8.87
2018-06-03T21:22:48.448Z,8.70
2018-06-03T21:25:16.594Z,9.20
2018-06-03T21:27:44.766Z,9.17
2018-06-03T21:30:12.888Z,9.20
2018-06-03T21:32:41.026Z,9.30
2018-06-03T21:35:09.180Z,8.63
2018-06-03T21:37:37.346Z,9.47
2018-06-03T21:40:05.470Z,8.60
2018-06-03T21:42:33.613Z,9.00
2018-06-03T21:45:01.791Z,9.00
2018-06-03T21:47:29.989Z,9.67
2018-06-03T21:49:58.199Z,9.27
2018-06-03T21:52:26.326Z,9.30
2018-06-03T21:54:54.446Z,9.87
2018-06-03T21:57:22.587Z,9.13
2018-06-03T21:59:50.782Z,9.40
2018-06-03T22:02:18.996Z,9.10
2018-06-03T22:04:47.184Z,9.40
2018-06-03T22:07:15.356Z,9.37
2018-06-03T22:09:43.509Z,9.93
2018-06-03T22:12:11.648Z,9.97
2018-06-03T22:14:39.820Z,10.27
2018-06-03T22:17:08.060Z,10.90
2018-06-03T22:19:37.101Z,11.00
2018-06-03T22:22:05.250Z,10.33
2018-06-03T22:24:33.412Z,10.13
2018-06-03T22:27:01.538Z,10.30
2018-06-03T22:29:29.696Z,10.20
2018-06-03T22:31:58.002Z,10.23
2018-06-03T22:34:26.121Z,9.53
2018-06-03T22:36:54.273Z,9.97
2018-06-03T22:39:22.449Z,11.07
2018-06-03T22:41:50.756Z,11.30
2018-06-03T22:44:18.896Z,10.43
2018-06-03T22:46:47.027Z,11.23
2018-06-03T22:49:15.171Z,10.43
2018-06-03T22:51:43.328Z,11.07
2018-06-03T22:54:11.471Z,10.50
2018-06-03T22:56:39.603Z,10.90
2018-06-03T22:59:07.758Z,10.10
2018-06-03T23:01:35.891Z,11.03
2018-06-03T23:04:04.032Z,10.73
2018-06-03T23:06:32.192Z,11.47
2018-06-03T23:09:00.404Z,10.83
2018-06-03T23:11:28.537Z,10.90
2018-06-03T23:13:56.696Z,11.20
2018-06-03T23:16:24.816Z,11.67
2018-06-03T23:18:53.120Z,11.13
2018-06-03T23:21:21.251Z,11.83
2018-06-03T23:23:49.381Z,11.90
2018-06-03T23:26:17.540Z,11.77
2018-06-03T23:28:45.652Z,11.93
2018-06-03T23:31:13.784Z,11.80
2018-06-03T23:33:41.922Z,12.27
2018-06-03T23:36:10.077Z,11.27
2018-06-03T23:38:38.214Z,11.50
2018-06-03T23:41:06.342Z,11.97
2018-06-03T23:43:34.630Z,11.87
2018-06-03T23:46:02.781Z,12.93
2018-06-03T23:48:30.913Z,11.40
2018-06-03T23:50:59.069Z,11.87
2018-06-03T23:53:27.220Z,12.13
2018-06-03T23:55:55.491Z,12.23
2018-06-03T23:58:23.649Z,12.20
